Austin, Mississippi
Current Conditions -  °F | °C
As of 4:15 PM on Friday 31 Oct 2014 (Local Time) from KUTA Reporting Station
Scattered Clouds Scattered Clouds  
Wind Chill: 55°   Ceiling: Unl
Heat Index: 55°   Visibility: 10mi
Dew Point: 37°   Wind: 20mph
Humidity: 51%   Direction: 340°NNW
Pressure: 30.17"   Gusts: 25mph
Location:  34.6827°N, 90.3615°W
Report Text: KUTA 312115Z AUTO 34017G22KT 10SM SCT049 SCT055 SCT065 13/03 A3017 RMK AO2
Loading
Personal Weather Stations






























Interactive Weather Map New forecast layout! Learn more

10-Day Weather Forecast

Advertisements
Track Severe Weather on mobile